createdAt,value
2022-10-22T00:00:29.861Z,4.43
2022-10-22T00:03:31.976Z,5.47
2022-10-22T00:06:34.473Z,8.73
2022-10-22T00:09:36.484Z,6.33
2022-10-22T00:12:38.428Z,9.00
2022-10-22T00:15:40.545Z,9.13
2022-10-22T00:18:42.547Z,8.57
2022-10-22T00:21:44.574Z,7.37
2022-10-22T00:24:46.533Z,7.37
2022-10-22T00:27:49.159Z,6.77
2022-10-22T00:30:59.130Z,9.80
2022-10-22T00:34:01.688Z,7.83
2022-10-22T00:37:03.911Z,6.43
2022-10-22T00:40:06.294Z,9.37
2022-10-22T00:43:12.409Z,6.13
2022-10-22T00:46:14.444Z,5.77
2022-10-22T00:49:16.617Z,8.73
2022-10-22T00:52:19.316Z,6.07
2022-10-22T00:55:22.700Z,8.03
2022-10-22T00:58:29.504Z,9.07
2022-10-22T01:01:32.545Z,7.10
2022-10-22T01:04:34.760Z,6.90
2022-10-22T01:07:44.252Z,7.87
2022-10-22T01:11:04.409Z,9.40
2022-10-22T01:14:46.538Z,7.03
2022-10-22T01:18:01.216Z,7.10
2022-10-22T01:21:23.690Z,8.93
2022-10-22T01:24:42.556Z,6.30
2022-10-22T01:28:01.803Z,6.27
2022-10-22T01:31:06.182Z,8.13
2022-10-22T01:34:10.699Z,6.27
2022-10-22T01:37:15.564Z,6.83
2022-10-22T01:40:19.438Z,9.00
2022-10-22T01:43:21.497Z,6.23
2022-10-22T01:46:27.112Z,9.47
2022-10-22T01:49:54.160Z,10.90
2022-10-22T01:53:11.788Z,8.63
2022-10-22T01:56:42.731Z,8.93
2022-10-22T02:00:02.822Z,6.87
2022-10-22T02:03:17.434Z,11.13
2022-10-22T02:06:24.972Z,6.97
2022-10-22T02:09:29.541Z,10.03
2022-10-22T02:12:34.045Z,7.87
2022-10-22T02:15:38.705Z,7.60
2022-10-22T02:18:44.572Z,7.63
2022-10-22T02:21:46.589Z,9.27
2022-10-22T02:24:49.480Z,8.00
2022-10-22T02:28:25.720Z,9.00
2022-10-22T02:31:34.116Z,8.23
2022-10-22T02:34:36.340Z,9.20
2022-10-22T02:37:40.393Z,9.33
2022-10-22T02:40:42.623Z,11.77
2022-10-22T02:43:56.282Z,11.40
2022-10-22T02:46:59.425Z,10.73
2022-10-22T02:50:01.839Z,9.83
2022-10-22T02:53:04.918Z,8.83
2022-10-22T02:56:07.308Z,9.57
2022-10-22T02:59:09.487Z,10.93
2022-10-22T03:02:11.471Z,9.10
2022-10-22T03:05:13.704Z,10.97
2022-10-22T03:08:15.689Z,11.70
2022-10-22T03:11:17.665Z,10.70
2022-10-22T03:14:19.801Z,10.13
2022-10-22T03:17:22.337Z,9.23
2022-10-22T03:20:24.326Z,9.70
2022-10-22T03:23:26.344Z,9.83
2022-10-22T03:26:28.445Z,10.20
2022-10-22T03:29:32.156Z,12.83
2022-10-22T03:32:34.205Z,10.00
2022-10-22T03:35:42.890Z,10.33
2022-10-22T03:38:45.520Z,8.23
2022-10-22T03:41:49.638Z,10.03
2022-10-22T03:44:51.649Z,9.43
2022-10-22T03:47:53.719Z,12.33
2022-10-22T03:50:55.778Z,10.03
2022-10-22T03:53:57.828Z,13.57
2022-10-22T03:56:59.869Z,9.50
2022-10-22T04:00:02.005Z,12.13
2022-10-22T04:03:07.216Z,11.87
2022-10-22T04:06:12.069Z,9.90
2022-10-22T04:09:14.133Z,14.93
2022-10-22T04:12:16.220Z,9.57
2022-10-22T04:15:18.529Z,11.93
2022-10-22T04:18:21.455Z,9.30
2022-10-22T04:21:23.488Z,14.17
2022-10-22T04:24:25.744Z,15.07
2022-10-22T04:27:34.818Z,15.23
2022-10-22T04:30:37.242Z,12.30
2022-10-22T04:33:39.760Z,13.73
2022-10-22T04:36:41.744Z,10.53
2022-10-22T04:39:43.762Z,14.47
2022-10-22T04:42:45.856Z,13.70
2022-10-22T04:45:48.066Z,13.47
2022-10-22T04:48:51.224Z,11.13
2022-10-22T04:51:53.222Z,13.80
2022-10-22T04:54:55.224Z,16.23
2022-10-22T04:57:57.205Z,12.80
2022-10-22T05:00:59.280Z,15.60
2022-10-22T05:04:03.318Z,13.33
2022-10-22T05:07:05.444Z,13.07
2022-10-22T05:10:08.113Z,12.37
2022-10-22T05:13:10.059Z,12.00
2022-10-22T05:16:13.570Z,13.73
2022-10-22T05:19:20.481Z,12.70
2022-10-22T05:22:22.490Z,15.77
2022-10-22T05:25:24.499Z,16.03
2022-10-22T05:28:26.665Z,10.93
2022-10-22T05:31:29.135Z,13.37
2022-10-22T05:34:31.089Z,11.27
2022-10-22T05:37:33.088Z,15.27
2022-10-22T05:40:35.097Z,15.60
2022-10-22T05:43:38.113Z,14.67
2022-10-22T05:46:40.970Z,10.93
2022-10-22T05:49:42.932Z,12.43
2022-10-22T05:52:44.968Z,13.63
2022-10-22T05:55:46.903Z,12.03
2022-10-22T05:58:49.462Z,12.10
2022-10-22T06:01:51.939Z,10.87
2022-10-22T06:04:53.969Z,10.83
2022-10-22T06:07:57.038Z,11.77
2022-10-22T06:10:59.874Z,12.93
2022-10-22T06:14:01.838Z,12.83
2022-10-22T06:17:03.823Z,10.63
2022-10-22T06:20:06.457Z,13.57
2022-10-22T06:23:08.521Z,11.97
2022-10-22T06:26:11.471Z,11.53
2022-10-22T06:29:13.455Z,11.13
2022-10-22T06:32:15.378Z,12.33
2022-10-22T06:35:17.545Z,12.93
2022-10-22T06:38:19.711Z,8.97
2022-10-22T06:41:24.383Z,8.70
2022-10-22T06:44:29.459Z,9.63
2022-10-22T06:47:33.532Z,8.00
2022-10-22T06:50:35.619Z,10.23
2022-10-22T06:53:39.462Z,13.73
2022-10-22T06:56:41.561Z,8.27
2022-10-22T06:59:43.600Z,8.10
2022-10-22T07:02:56.420Z,10.17
2022-10-22T07:06:02.843Z,10.83
2022-10-22T07:09:04.988Z,8.40
2022-10-22T07:12:07.221Z,12.90
2022-10-22T07:15:09.641Z,11.67
2022-10-22T07:18:11.721Z,9.43
2022-10-22T07:21:15.642Z,6.27
2022-10-22T07:24:17.726Z,9.20
2022-10-22T07:27:19.762Z,11.13
2022-10-22T07:30:21.791Z,6.57
2022-10-22T07:33:23.712Z,6.87
2022-10-22T07:36:26.006Z,8.60
2022-10-22T07:39:29.058Z,7.23
2022-10-22T07:42:31.111Z,9.80
2022-10-22T07:45:33.872Z,13.80
2022-10-22T07:48:37.782Z,14.83
2022-10-22T07:51:39.889Z,15.67
2022-10-22T07:54:41.961Z,15.13
2022-10-22T07:57:43.957Z,14.10
2022-10-22T08:00:46.461Z,12.27
2022-10-22T08:03:49.260Z,11.37
2022-10-22T08:06:51.398Z,11.57
2022-10-22T08:09:53.418Z,14.23
2022-10-22T08:12:56.095Z,10.33
2022-10-22T08:16:01.580Z,11.53
2022-10-22T08:19:03.594Z,9.07
2022-10-22T08:22:05.681Z,10.70
2022-10-22T08:25:08.167Z,12.97
2022-10-22T08:28:10.216Z,13.50
2022-10-22T08:31:12.708Z,9.70
2022-10-22T08:34:15.004Z,8.47
2022-10-22T08:37:18.049Z,9.17
2022-10-22T08:40:34.199Z,10.27
2022-10-22T08:44:04.773Z,9.50
2022-10-22T08:47:22.380Z,11.80
2022-10-22T08:50:31.484Z,11.10
2022-10-22T08:54:08.012Z,8.73
2022-10-22T08:57:10.000Z,11.57
2022-10-22T09:00:33.504Z,10.67
2022-10-22T09:03:44.396Z,12.57
2022-10-22T09:06:49.556Z,11.90
2022-10-22T09:09:55.772Z,12.90
2022-10-22T09:12:57.919Z,12.47
2022-10-22T09:16:11.529Z,12.67
2022-10-22T09:19:55.477Z,11.37
2022-10-22T09:23:06.389Z,11.43
2022-10-22T09:26:16.674Z,8.93
2022-10-22T09:29:24.723Z,12.57
2022-10-22T09:32:27.593Z,9.27
2022-10-22T09:35:34.821Z,7.80
2022-10-22T09:38:49.806Z,9.40
2022-10-22T09:41:52.063Z,10.37
2022-10-22T09:44:56.617Z,7.47
2022-10-22T09:48:30.680Z,5.80
2022-10-22T09:51:55.310Z,5.90
2022-10-22T09:55:01.851Z,6.17
2022-10-22T09:58:03.932Z,5.37
2022-10-22T10:01:06.071Z,6.10
2022-10-22T10:04:11.229Z,4.30
2022-10-22T10:07:30.342Z,5.43
2022-10-22T10:10:35.368Z,5.80
2022-10-22T10:13:38.757Z,5.73
2022-10-22T10:17:05.317Z,2.97
2022-10-22T10:20:26.818Z,3.13
2022-10-22T10:23:56.885Z,4.53
2022-10-22T10:27:10.574Z,3.83
2022-10-22T10:30:21.694Z,3.83
2022-10-22T10:33:36.762Z,2.33
2022-10-22T10:36:58.962Z,2.17
2022-10-22T10:40:31.831Z,3.20
2022-10-22T10:44:05.968Z,2.03
2022-10-22T10:47:29.389Z,1.97
2022-10-22T10:50:53.663Z,2.73
2022-10-22T10:54:27.920Z,1.20
2022-10-22T10:57:54.013Z,5.37
2022-10-22T11:01:03.651Z,1.63
2022-10-22T11:04:53.297Z,1.53
2022-10-22T11:08:03.503Z,1.83
2022-10-22T11:11:14.784Z,1.37
2022-10-22T11:14:31.470Z,3.60
2022-10-22T11:17:44.715Z,0.70
2022-10-22T11:20:55.535Z,1.10
2022-10-22T11:24:22.078Z,1.67
2022-10-22T11:27:29.257Z,0.73
2022-10-22T11:30:38.033Z,0.63
2022-10-22T11:34:00.450Z,3.80
2022-10-22T11:37:14.143Z,2.47
2022-10-22T11:40:18.837Z,1.23
2022-10-22T11:43:26.909Z,0.67
2022-10-22T11:46:40.551Z,0.50
2022-10-22T11:49:58.586Z,0.53
2022-10-22T11:53:08.131Z,0.83
2022-10-22T11:56:13.352Z,0.70
2022-10-22T11:59:38.670Z,0.90
2022-10-22T12:02:43.230Z,2.10
2022-10-22T12:05:46.761Z,0.70
2022-10-22T12:08:54.771Z,0.67
2022-10-22T12:12:05.021Z,0.70
2022-10-22T12:15:27.331Z,3.57
2022-10-22T12:18:41.626Z,1.60
2022-10-22T12:21:49.029Z,2.00
2022-10-22T12:24:57.332Z,1.70
2022-10-22T12:28:01.123Z,2.53
2022-10-22T12:31:03.823Z,0.77
2022-10-22T12:34:06.292Z,8.63
2022-10-22T12:37:10.988Z,2.83
2022-10-22T12:40:25.403Z,1.53
2022-10-22T12:43:29.989Z,2.67
2022-10-22T12:46:34.774Z,0.93
2022-10-22T12:49:41.020Z,1.77
2022-10-22T12:52:43.857Z,1.83
2022-10-22T12:55:52.183Z,0.87
2022-10-22T12:59:02.375Z,3.53
2022-10-22T13:02:25.790Z,0.83
2022-10-22T13:05:34.302Z,1.43
2022-10-22T13:08:39.491Z,1.00
2022-10-22T13:11:50.108Z,2.63
2022-10-22T13:14:52.231Z,1.23
2022-10-22T13:18:18.737Z,1.07
2022-10-22T13:21:35.199Z,1.43
2022-10-22T13:24:49.915Z,1.90
2022-10-22T13:27:54.024Z,1.53
2022-10-22T13:31:17.715Z,1.53
2022-10-22T13:34:25.082Z,0.70
2022-10-22T13:37:29.068Z,1.13
2022-10-22T13:40:31.196Z,1.43
2022-10-22T13:43:33.270Z,0.70
2022-10-22T13:46:42.544Z,1.00
2022-10-22T13:49:46.999Z,1.00
2022-10-22T13:52:55.211Z,0.60
2022-10-22T13:55:57.533Z,1.43
2022-10-22T13:58:59.654Z,1.03
2022-10-22T14:02:06.613Z,1.13
2022-10-22T14:05:09.873Z,0.50
2022-10-22T14:08:14.296Z,0.57
2022-10-22T14:11:17.509Z,0.70
2022-10-22T14:14:19.524Z,0.77
2022-10-22T14:17:21.663Z,0.30
2022-10-22T14:20:26.997Z,0.40
2022-10-22T14:23:30.943Z,1.80
2022-10-22T14:26:33.928Z,0.87
2022-10-22T14:29:35.908Z,0.50
2022-10-22T14:32:38.270Z,1.13
2022-10-22T14:35:40.404Z,0.83
2022-10-22T14:38:49.439Z,2.43
2022-10-22T14:41:51.390Z,1.20
2022-10-22T14:44:53.480Z,0.43
2022-10-22T14:47:55.889Z,0.30
2022-10-22T14:50:57.933Z,1.23
2022-10-22T14:54:00.005Z,3.53
2022-10-22T14:57:05.363Z,1.43
2022-10-22T15:00:09.914Z,0.43
2022-10-22T15:03:11.970Z,0.53
2022-10-22T15:06:18.040Z,0.40
2022-10-22T15:09:20.111Z,1.80
2022-10-22T15:12:22.134Z,0.43
2022-10-22T15:15:25.590Z,0.60
2022-10-22T15:18:29.991Z,1.33
2022-10-22T15:21:32.174Z,0.93
2022-10-22T15:24:34.320Z,1.90
2022-10-22T15:27:36.501Z,0.63
2022-10-22T15:30:38.886Z,0.50
2022-10-22T15:33:43.725Z,1.83
2022-10-22T15:36:45.896Z,0.60
2022-10-22T15:39:48.108Z,0.83
2022-10-22T15:42:50.349Z,0.57
2022-10-22T15:46:13.689Z,0.40
2022-10-22T15:49:15.949Z,0.40
2022-10-22T15:52:18.096Z,0.50
2022-10-22T15:55:20.665Z,0.77
2022-10-22T15:58:22.786Z,1.80
2022-10-22T16:01:26.398Z,0.77
2022-10-22T16:04:29.754Z,0.60
2022-10-22T16:07:32.219Z,3.63
2022-10-22T16:10:34.400Z,0.80
2022-10-22T16:13:37.983Z,0.40
2022-10-22T16:16:43.934Z,0.40
2022-10-22T16:19:47.572Z,0.50
2022-10-22T16:22:50.897Z,1.00
2022-10-22T16:25:53.459Z,0.90
2022-10-22T16:28:55.774Z,0.93
2022-10-22T16:31:58.232Z,1.97
2022-10-22T16:35:00.710Z,0.67
2022-10-22T16:38:03.249Z,0.60
2022-10-22T16:41:35.319Z,2.47
2022-10-22T16:44:37.691Z,0.70
2022-10-22T16:47:40.960Z,4.40
2022-10-22T16:50:43.822Z,3.00
2022-10-22T16:53:46.847Z,1.13
2022-10-22T16:56:49.570Z,1.43
2022-10-22T16:59:52.045Z,1.80
2022-10-22T17:02:56.767Z,2.93
2022-10-22T17:06:00.999Z,1.73
2022-10-22T17:09:04.630Z,3.07
2022-10-22T17:12:08.704Z,1.37
2022-10-22T17:15:11.764Z,2.87
2022-10-22T17:18:14.948Z,4.13
2022-10-22T17:21:18.699Z,1.67
2022-10-22T17:24:21.612Z,3.80
2022-10-22T17:27:24.711Z,2.20
2022-10-22T17:30:29.074Z,2.27
2022-10-22T17:33:32.490Z,2.03
2022-10-22T17:36:36.327Z,2.83
2022-10-22T17:39:38.744Z,4.97
2022-10-22T17:42:41.757Z,4.33
2022-10-22T17:45:44.731Z,3.33
2022-10-22T17:49:02.677Z,3.37
2022-10-22T17:52:05.760Z,2.67
2022-10-22T17:55:08.687Z,2.43
2022-10-22T17:58:11.574Z,2.90
2022-10-22T18:01:24.478Z,5.00
2022-10-22T18:04:26.967Z,4.70
2022-10-22T18:07:32.348Z,5.83
2022-10-22T18:10:40.303Z,1.63
2022-10-22T18:13:43.060Z,1.70
2022-10-22T18:16:46.496Z,2.13
2022-10-22T18:19:50.451Z,1.60
2022-10-22T18:22:55.390Z,4.10
2022-10-22T18:25:58.451Z,2.40
2022-10-22T18:29:02.338Z,3.33
2022-10-22T18:32:12.144Z,1.83
2022-10-22T18:35:18.539Z,1.53
2022-10-22T18:38:29.246Z,3.80
2022-10-22T18:41:33.604Z,4.30
2022-10-22T18:44:37.060Z,0.90
2022-10-22T18:47:43.360Z,1.50
2022-10-22T18:50:47.874Z,1.50
2022-10-22T18:54:05.229Z,1.93
2022-10-22T18:57:16.406Z,2.20
2022-10-22T19:00:19.387Z,1.93
2022-10-22T19:03:22.459Z,3.23
2022-10-22T19:06:34.509Z,3.53
2022-10-22T19:09:40.656Z,1.83
2022-10-22T19:12:42.845Z,1.90
2022-10-22T19:15:45.421Z,1.13
2022-10-22T19:18:47.533Z,2.83
2022-10-22T19:21:50.551Z,4.70
2022-10-22T19:24:53.768Z,4.43
2022-10-22T19:27:56.095Z,3.30
2022-10-22T19:30:59.288Z,0.70
2022-10-22T19:34:02.832Z,2.77
2022-10-22T19:37:05.552Z,1.70
2022-10-22T19:40:09.635Z,1.80
2022-10-22T19:43:13.545Z,4.40
2022-10-22T19:46:19.040Z,2.30
2022-10-22T19:49:22.989Z,2.53
2022-10-22T19:52:26.331Z,7.67
2022-10-22T19:55:29.310Z,1.70
2022-10-22T19:58:31.852Z,4.00
2022-10-22T20:01:34.357Z,2.17
2022-10-22T20:04:37.040Z,3.87
2022-10-22T20:07:39.472Z,3.00
2022-10-22T20:10:41.935Z,2.43
2022-10-22T20:13:46.755Z,1.30
2022-10-22T20:16:52.121Z,1.40
2022-10-22T20:19:54.237Z,4.17
2022-10-22T20:22:56.589Z,5.83
2022-10-22T20:26:00.143Z,4.10
2022-10-22T20:29:02.424Z,1.40
2022-10-22T20:32:06.747Z,1.43
2022-10-22T20:35:10.888Z,1.50
2022-10-22T20:38:15.341Z,1.40
2022-10-22T20:41:23.196Z,1.50
2022-10-22T20:44:25.756Z,0.73
2022-10-22T20:47:39.155Z,2.23
2022-10-22T20:50:50.332Z,1.73
2022-10-22T20:53:52.902Z,1.07
2022-10-22T20:56:55.622Z,1.57
2022-10-22T20:59:58.473Z,0.90
2022-10-22T21:03:02.366Z,2.40
2022-10-22T21:06:06.116Z,1.57
2022-10-22T21:09:12.167Z,0.63
2022-10-22T21:12:14.207Z,0.70
2022-10-22T21:15:16.338Z,2.10
2022-10-22T21:18:18.393Z,1.00
2022-10-22T21:21:20.483Z,0.73
2022-10-22T21:24:24.940Z,1.33
2022-10-22T21:27:27.052Z,1.30
2022-10-22T21:30:29.073Z,1.97
2022-10-22T21:33:31.528Z,0.97
2022-10-22T21:36:33.534Z,2.07
2022-10-22T21:39:41.058Z,1.30
2022-10-22T21:42:44.296Z,0.80
2022-10-22T21:45:46.579Z,1.20
2022-10-22T21:48:56.362Z,0.53
2022-10-22T21:52:00.306Z,0.60
2022-10-22T21:55:02.322Z,0.40
2022-10-22T21:58:04.254Z,1.23
2022-10-22T22:01:06.394Z,1.87
2022-10-22T22:04:08.453Z,2.20
2022-10-22T22:07:10.464Z,1.60
2022-10-22T22:10:12.673Z,1.27
2022-10-22T22:13:14.724Z,0.70
2022-10-22T22:16:23.950Z,1.70
2022-10-22T22:19:29.358Z,2.30
2022-10-22T22:22:31.378Z,0.67
2022-10-22T22:25:33.440Z,2.40
2022-10-22T22:28:36.042Z,1.63
2022-10-22T22:31:38.060Z,1.23
2022-10-22T22:34:42.585Z,3.30
2022-10-22T22:37:44.650Z,1.17
2022-10-22T22:40:46.733Z,3.80
2022-10-22T22:43:48.760Z,1.50
2022-10-22T22:46:50.873Z,1.27
2022-10-22T22:49:52.918Z,1.47
2022-10-22T22:52:55.013Z,0.50
2022-10-22T22:56:18.819Z,1.00
2022-10-22T22:59:22.073Z,0.90
2022-10-22T23:02:24.227Z,1.30
2022-10-22T23:05:26.259Z,3.30
2022-10-22T23:08:28.211Z,3.20
2022-10-22T23:11:30.221Z,1.47
2022-10-22T23:14:32.202Z,1.70
2022-10-22T23:17:34.124Z,1.23
2022-10-22T23:20:39.145Z,1.60
2022-10-22T23:23:46.715Z,0.87
2022-10-22T23:26:50.980Z,1.77
2022-10-22T23:29:53.000Z,0.70
2022-10-22T23:32:55.027Z,7.47
2022-10-22T23:35:57.144Z,0.40
2022-10-22T23:38:59.192Z,2.63
2022-10-22T23:42:01.269Z,0.50
2022-10-22T23:45:03.393Z,1.50
2022-10-22T23:48:05.620Z,0.60
2022-10-22T23:51:13.624Z,1.97
2022-10-22T23:54:20.834Z,4.10
2022-10-22T23:57:23.337Z,1.00
